Terminal Aerodrome Forecast
Issued by NWS

Home | Current Version | Previous Version | Text Only | Print | Product List | Glossary On
Versions: 1 2 3 4 5 6 7 8 9 10 11 12 13 14 15 16 17 18 19 20 21 22 23 24 25 26 27 28 29 30 31
000
FTUS44 KOUN 011230 AAA
TAFPNC
TAF AMD
KPNC 011230Z 0113/0212 VRB03KT 3SM BR SCT002
      TEMPO 0113/0114 5SM BR
     FM011500 20003KT P6SM FEW250
     FM011800 15003KT P6SM SKC=

USA.gov is the U.S. government's official web portal to all federal, state and local government web resources and services.